This is the latest recevied weather packets stored in our database for station/object OH6GKW. If no packets are shown the sender has not sent any weather packets the latest 10 day(s).
| Time | Temp. | Humidity | Pressure | Rain* | Wind** | Luminosity | Snow |
|---|---|---|---|---|---|---|---|
| 1777289314 | 5° C | 60% | 1016.1 hPa | 0 mm | - | 640 W/m² | - |
| 1777289027 | 5° C | 61% | 1016.1 hPa | 0 mm | - | 644 W/m² | - |
| 1777288720 | 5° C | 61% | 1016.1 hPa | 0 mm | - | 648 W/m² | - |
| 1777288412 | 4.44° C | 62% | 1016.2 hPa | 0 mm | - | 648 W/m² | - |
| 1777288111 | 4.44° C | 63% | 1016.2 hPa | 0 mm | - | 651 W/m² | - |
| 1777287834 | 5° C | 61% | 1016.2 hPa | 0 mm | - | 653 W/m² | - |
| 1777287523 | 5° C | 62% | 1016 hPa | 0 mm | - | 655 W/m² | - |
| 1777287219 | 5° C | 62% | 1016 hPa | 0 mm | - | 656 W/m² | - |
| 1777286914 | 4.44° C | 63% | 1016 hPa | 0 mm | - | 656 W/m² | - |
| 1777286627 | 4.44° C | 61% | 1016.2 hPa | 0 mm | - | 658 W/m² | - |
| 1777286319 | 4.44° C | 62% | 1016.2 hPa | 0 mm | - | 658 W/m² | - |
| 1777286022 | 4.44° C | 61% | 1016.2 hPa | 0 mm | - | 660 W/m² | - |
| 1777285712 | 3.89° C | 65% | 1016.1 hPa | 0 mm | - | 662 W/m² | - |
| 1777285427 | 3.89° C | 63% | 1016.1 hPa | 0 mm | - | 667 W/m² | - |
| 1777285120 | 4.44° C | 64% | 1016.1 hPa | 0 mm | - | 670 W/m² | - |
| 1777284811 | 4.44° C | 63% | 1016 hPa | 0 mm | - | 660 W/m² | - |
| 1777284534 | 3.89° C | 66% | 1016 hPa | 0 mm | - | 662 W/m² | - |
| 1777284228 | 3.89° C | 66% | 1016 hPa | 0 mm | - | 660 W/m² | - |
| 1777283917 | 3.89° C | 65% | 1015.8 hPa | 0 mm | - | 660 W/m² | - |
| 1777283609 | 3.89° C | 64% | 1015.8 hPa | 0 mm | - | 665 W/m² | - |
| 1777283321 | 3.33° C | 66% | 1015.8 hPa | 0 mm | - | 660 W/m² | - |
| 1777283016 | 3.89° C | 66% | 1015.7 hPa | 0 mm | - | 655 W/m² | - |
| 1777282739 | 3.89° C | 66% | 1015.7 hPa | 0 mm | - | 676 W/m² | - |
| 1777282434 | 3.89° C | 66% | 1015.7 hPa | 0 mm | - | 646 W/m² | - |
| 1777282124 | 3.89° C | 66% | 1015.5 hPa | 0 mm | - | 640 W/m² | - |
* Rain since midnight (hover to see other rain measurements)
** Current wind speed in m/s (hover to see current wind gust speed)